Time;durP1;ratioP1;P1;durP2;ratioP2;P2;SDS_P1;SDS_P2;PMS_P1;PMS_P2;Temp;Humidity;BMP_temperature;BMP_pressure;BME280_temperature;BME280_humidity;BME280_pressure;Samples;Min_cycle;Max_cycle;Signal;HPM_P1;HPM_P2
2023/01/01 00:01:13;;;;;;;;;;;;;;;7.60;100.00;99993.97;1712132;84;21499;-70
2023/01/01 00:03:39;;;;;;;18.98;14.95;;;;;;;7.57;100.00;99976.32;1708385;82;20299;-69
2023/01/01 00:06:09;;;;;;;19.52;14.80;;;;;;;7.63;100.00;99978.03;1673549;84;21047;-69
2023/01/01 00:08:36;;;;;;;23.30;15.00;;;;;;;7.63;100.00;99978.03;1672922;84;21067;-68
2023/01/01 00:11:05;;;;;;;18.87;14.18;;;;;;;7.63;100.00;99979.39;1672692;84;22186;-69
2023/01/01 00:13:32;;;;;;;20.40;14.55;;;;;;;7.68;100.00;99984.91;1703743;82;21134;-71
2023/01/01 00:16:12;;;;;;;22.70;14.78;;;;;;;7.74;100.00;99980.38;1703428;83;21041;-72
2023/01/01 00:18:39;;;;;;;19.60;14.83;;;;;;;7.71;100.00;99979.52;1704415;82;21047;-69
2023/01/01 00:21:10;;;;;;;17.45;13.98;;;;;;;7.74;100.00;99982.55;1668012;84;21572;-70
2023/01/01 00:23:38;;;;;;;19.27;15.20;;;;;;;7.78;100.00;99979.64;1686613;84;21086;-70
2023/01/01 00:26:10;;;;;;;19.15;14.78;;;;;;;7.77;100.00;99982.05;1701807;82;21048;-69
2023/01/01 00:28:36;;;;;;;20.00;14.03;;;;;;;7.81;100.00;99971.54;1706068;83;21062;-69
2023/01/01 00:31:13;;;;;;;18.37;14.43;;;;;;;7.88;100.00;99979.79;1701280;82;20999;-69
2023/01/01 00:33:39;;;;;;;19.42;14.80;;;;;;;7.88;100.00;99975.73;1703236;82;21130;-69
2023/01/01 00:36:08;;;;;;;;;;;;;;;7.88;100.00;99964.06;1701041;84;21055;-70
2023/01/01 00:38:35;;;;;;;20.23;14.18;;;;;;;7.92;100.00;99970.63;1694130;83;20291;-69
2023/01/01 00:41:01;;;;;;;19.12;13.60;;;;;;;7.76;100.00;99970.92;1697475;83;21026;-69
2023/01/01 00:43:28;;;;;;;19.30;13.32;;;;;;;7.77;100.00;99977.98;1693118;84;21085;-70
2023/01/01 00:45:55;;;;;;;17.65;14.45;;;;;;;7.79;100.00;99982.64;1695098;83;21023;-71
2023/01/01 00:48:21;;;;;;;;;;;;;;;7.78;100.00;99969.33;1688556;83;21073;-70
2023/01/01 00:50:49;;;;;;;18.32;14.40;;;;;;;7.75;100.00;99965.77;1698819;83;20138;-70
2023/01/01 00:53:15;;;;;;;16.95;13.40;;;;;;;7.65;100.00;99957.48;1692458;84;21086;-71
2023/01/01 00:55:43;;;;;;;20.82;15.55;;;;;;;7.71;100.00;99960.02;1658915;86;21003;-70
2023/01/01 00:58:09;;;;;;;19.45;14.93;;;;;;;7.71;100.00;99959.19;1661913;85;21094;-69
2023/01/01 01:00:36;;;;;;;17.32;13.88;;;;;;;7.66;100.00;99961.81;1659882;85;21007;-70
2023/01/01 01:03:03;;;;;;;19.30;14.13;;;;;;;7.66;100.00;99964.52;1631808;85;21661;-69
2023/01/01 01:05:31;;;;;;;18.48;13.90;;;;;;;7.68;100.00;99961.88;1661054;85;20983;-70
2023/01/01 01:07:58;;;;;;;18.37;14.15;;;;;;;7.67;100.00;99962.94;1659180;85;21136;-70
2023/01/01 01:10:25;;;;;;;18.80;14.30;;;;;;;7.70;100.00;99967.85;1653504;85;20984;-70
2023/01/01 01:12:52;;;;;;;18.67;14.23;;;;;;;7.77;100.00;99971.74;1665189;85;21033;-70
2023/01/01 01:15:18;;;;;;;19.07;14.33;;;;;;;7.75;100.00;99974.72;1647018;86;21488;-70
2023/01/01 01:17:45;;;;;;;18.50;13.30;;;;;;;7.72;100.00;99975.75;1649271;85;21035;-71
2023/01/01 01:20:12;;;;;;;18.42;13.83;;;;;;;7.76;100.00;99979.61;1647643;86;21499;-72
2023/01/01 01:22:39;;;;;;;17.23;13.68;;;;;;;7.80;100.00;99974.78;1650505;86;21035;-72
2023/01/01 01:25:06;;;;;;;17.85;14.15;;;;;;;7.80;100.00;99970.72;1664581;85;20992;-73
2023/01/01 01:27:35;;;;;;;16.67;12.95;;;;;;;7.81;100.00;99962.87;1660025;85;21039;-71
2023/01/01 01:30:02;;;;;;;17.57;13.90;;;;;;;7.85;100.00;99956.42;1660017;85;21008;-72
2023/01/01 01:32:29;;;;;;;17.65;13.03;;;;;;;7.90;100.00;99960.58;1634405;87;21048;-71
2023/01/01 01:34:56;;;;;;;17.45;12.88;;;;;;;7.88;100.00;99968.13;1650160;85;21482;-71
2023/01/01 01:37:22;;;;;;;17.12;13.08;;;;;;;7.89;100.00;99976.02;1660148;85;21059;-72
2023/01/01 01:39:49;;;;;;;17.70;13.00;;;;;;;7.94;100.00;99961.70;1659650;85;21123;-72
2023/01/01 01:42:16;;;;;;;18.12;13.28;;;;;;;7.92;100.00;99970.09;1703033;83;20992;-72
2023/01/01 01:44:54;;;;;;;15.13;12.23;;;;;;;7.92;100.00;99959.78;1710715;82;21490;-72
2023/01/01 01:47:53;;;;;;;15.43;12.68;;;;;;;7.98;100.00;99960.95;1691524;83;20976;-72
2023/01/01 01:50:28;;;;;;;16.85;12.85;;;;;;;7.96;100.00;99952.27;1707482;83;20978;-71
2023/01/01 01:53:03;;;;;;;14.00;11.95;;;;;;;7.94;100.00;99950.86;1707763;82;21056;-72
2023/01/01 01:55:34;;;;;;;15.38;12.73;;;;;;;7.98;100.00;99958.78;1710765;84;20980;-71
2023/01/01 01:58:01;;;;;;;15.90;12.70;;;;;;;7.95;100.00;99958.75;1701381;84;21111;-72
2023/01/01 02:00:29;;;;;;;16.87;12.05;;;;;;;7.96;100.00;99948.73;1694589;83;20968;-72
2023/01/01 02:03:18;;;;;;;15.83;12.35;;;;;;;8.01;100.00;99946.90;1686685;83;21543;-72
2023/01/01 02:05:44;;;;;;;15.98;12.30;;;;;;;8.07;100.00;99942.92;1697332;82;21031;-72
2023/01/01 02:08:14;;;;;;;16.48;12.43;;;;;;;8.07;100.00;99942.39;1700800;82;21709;-71
2023/01/01 02:10:41;;;;;;;16.57;12.47;;;;;;;8.06;100.00;99935.31;1660557;84;21536;-71
2023/01/01 02:13:09;;;;;;;15.25;11.55;;;;;;;8.11;100.00;99942.70;1650225;86;21127;-71
2023/01/01 02:15:53;;;;;;;14.00;11.78;;;;;;;8.14;100.00;99935.42;1699056;84;22157;-71
2023/01/01 02:18:24;;;;;;;16.23;11.85;;;;;;;8.13;100.00;99942.73;1690321;84;21094;-72
2023/01/01 02:20:55;;;;;;;13.78;11.55;;;;;;;8.14;100.00;99949.80;1695505;83;21028;-71
2023/01/01 02:24:11;;;;;;;15.13;11.43;;;;;;;8.17;100.00;99945.77;1701520;84;21119;-70
2023/01/01 02:26:55;;;;;;;15.00;11.25;;;;;;;8.13;100.00;99945.45;1670038;85;21096;-72
2023/01/01 02:29:37;;;;;;;16.25;11.63;;;;;;;8.17;100.00;99945.77;1671822;85;21198;-70
2023/01/01 02:32:11;;;;;;;14.83;11.00;;;;;;;8.19;100.00;99943.08;1657553;86;22245;-70
2023/01/01 02:34:48;;;;;;;12.85;9.98;;;;;;;8.20;100.00;99941.19;1683203;84;21848;-71
2023/01/01 02:37:15;;;;;;;;;;;;;;;8.23;100.00;99949.64;1702527;83;21455;-71
2023/01/01 02:39:47;;;;;;;13.43;10.55;;;;;;;8.28;100.00;99946.19;1722283;83;20129;-70
2023/01/01 02:42:14;;;;;;;13.22;9.63;;;;;;;8.19;100.00;99943.61;1697819;83;20983;-71
2023/01/01 02:44:41;;;;;;;14.13;9.95;;;;;;;8.23;100.00;99946.94;1714627;82;21027;-71
2023/01/01 02:47:11;;;;;;;12.45;9.20;;;;;;;8.32;100.00;99943.30;1723600;83;20994;-71
2023/01/01 02:50:02;;;;;;;14.33;10.32;;;;;;;8.34;100.00;99935.17;1722780;82;21062;-72
2023/01/01 02:52:57;;;;;;;16.48;9.93;;;;;;;8.34;100.00;99939.78;1717099;83;21011;-72
2023/01/01 02:55:42;;;;;;;14.70;10.38;;;;;;;8.42;100.00;99935.28;1675485;84;21051;-73
2023/01/01 03:01:10;;;;;;;13.10;9.45;;;;;;;8.44;100.00;99940.72;1671861;86;21015;-71
2023/01/01 03:03:41;;;;;;;11.40;9.15;;;;;;;8.49;100.00;99944.05;1688537;83;21614;-71
2023/01/01 03:06:40;;;;;;;13.05;9.48;;;;;;;8.55;100.00;99946.27;1671333;85;22272;-71
2023/01/01 03:09:29;;;;;;;11.00;8.28;;;;;;;8.52;100.00;99942.17;1683517;85;21153;-71
2023/01/01 03:12:11;;;;;;;;;;;;;;;8.55;100.00;99936.77;1681317;84;21054;-70
2023/01/01 03:14:48;;;;;;;14.38;9.13;;;;;;;8.58;100.00;99934.91;1686822;83;20160;-71
2023/01/01 03:17:20;;;;;;;14.05;8.85;;;;;;;8.50;100.00;99935.63;1671390;85;21422;-70
2023/01/01 03:19:46;;;;;;;12.47;9.40;;;;;;;8.59;100.00;99937.91;1666851;85;21082;-70
2023/01/01 03:22:15;;;;;;;11.30;8.68;;;;;;;8.67;100.00;99941.54;1686147;85;21689;-71
2023/01/01 03:24:50;;;;;;;11.25;8.18;;;;;;;8.67;100.00;99949.14;1670819;85;21102;-71
2023/01/01 03:27:27;;;;;;;10.82;7.60;;;;;;;8.70;100.00;99952.70;1670121;85;22201;-70
2023/01/01 03:29:55;;;;;;;12.40;8.63;;;;;;;8.78;100.00;99941.94;1661181;85;21070;-71
2023/01/01 03:32:58;;;;;;;11.60;8.68;;;;;;;8.82;100.00;99943.07;1671729;85;21595;-71
2023/01/01 03:34:55;;;;;;;10.80;7.70;;;;;;;8.80;100.00;99945.20;1664488;85;21059;-71
2023/01/01 03:37:26;;;;;;;11.12;8.03;;;;;;;8.86;100.00;99937.39;1669451;85;21051;-71
2023/01/01 03:39:56;;;;;;;11.40;8.13;;;;;;;8.93;100.00;99944.26;1641391;86;21133;-71
2023/01/01 03:42:37;;;;;;;11.28;7.45;;;;;;;8.92;100.00;99936.39;1646178;86;20990;-70
2023/01/01 03:45:17;;;;;;;11.30;7.62;;;;;;;8.95;100.00;99933.16;1637596;86;21594;-71
2023/01/01 03:47:44;;;;;;;10.60;7.85;;;;;;;8.98;100.00;99940.78;1635537;86;21038;-71
2023/01/01 03:50:10;;;;;;;;;;;;;;;8.98;100.00;99942.97;1645156;86;21504;-71
2023/01/01 03:53:02;;;;;;;11.85;7.62;;;;;;;9.02;100.00;99947.34;1635147;87;20395;-71
2023/01/01 03:55:51;;;;;;;8.83;6.95;;;;;;;9.02;100.00;99953.31;1641429;86;21015;-71
2023/01/01 03:58:23;;;;;;;10.23;7.15;;;;;;;8.97;100.00;99947.28;1639581;87;21452;-71
2023/01/01 04:00:55;;;;;;;9.80;7.20;;;;;;;8.98;100.00;99961.15;1641056;86;21045;-71
2023/01/01 04:03:23;;;;;;;10.05;7.50;;;;;;;9.04;100.00;99960.11;1636992;86;21076;-72
2023/01/01 04:05:49;;;;;;;11.50;7.67;;;;;;;9.04;100.00;99957.40;1644828;86;21059;-72
2023/01/01 04:08:16;;;;;;;;;;;;;;;9.05;100.00;99963.13;1644246;86;21136;-71
2023/01/01 04:10:46;;;;;;;10.25;7.20;;;;;;;9.12;100.00;99954.23;1646534;86;20145;-71
2023/01/01 04:13:12;;;;;;;10.88;7.20;;;;;;;9.08;100.00;99946.31;1637393;87;21087;-71
2023/01/01 04:15:39;;;;;;;9.68;6.90;;;;;;;9.07;100.00;99943.30;1647330;86;21499;-72
2023/01/01 04:18:06;;;;;;;9.98;6.97;;;;;;;9.12;100.00;99942.55;1639471;86;21537;-71
2023/01/01 04:20:32;;;;;;;9.15;6.78;;;;;;;9.16;100.00;99948.57;1644029;85;20994;-71
2023/01/01 04:22:59;;;;;;;11.68;7.08;;;;;;;9.20;100.00;99950.23;1649922;86;21097;-71
2023/01/01 04:25:27;;;;;;;9.10;6.53;;;;;;;9.18;100.00;99950.48;1636164;86;20996;-71
2023/01/01 04:27:53;;;;;;;9.88;6.53;;;;;;;9.21;100.00;99949.16;1648507;85;21683;-71
2023/01/01 04:30:19;;;;;;;9.58;6.55;;;;;;;9.27;100.00;99944.88;1647504;85;21493;-72
2023/01/01 04:32:46;;;;;;;;;;;;;;;9.28;100.00;99960.08;1645795;86;21017;-71
2023/01/01 04:35:13;;;;;;;9.38;6.55;;;;;;;9.24;100.00;99958.16;1649298;85;20106;-71
2023/01/01 04:37:41;;;;;;;10.03;6.60;;;;;;;9.20;100.00;99961.92;1647314;85;21042;-71
2023/01/01 04:40:11;;;;;;;8.15;6.60;;;;;;;9.22;100.00;99961.65;1664447;84;21041;-71
2023/01/01 04:42:37;;;;;;;8.28;6.78;;;;;;;9.18;100.00;99972.20;1653085;85;21008;-71
2023/01/01 04:45:04;;;;;;;9.38;6.83;;;;;;;9.10;100.00;99966.44;1707179;83;21072;-71
2023/01/01 04:47:32;;;;;;;8.53;6.20;;;;;;;9.07;100.00;99963.67;1690686;82;21079;-71
2023/01/01 04:49:58;;;;;;;9.43;6.85;;;;;;;9.04;100.00;99969.62;1706909;83;21357;-71
2023/01/01 04:52:25;;;;;;;8.63;6.78;;;;;;;8.95;100.00;99971.16;1696349;83;21012;-72
2023/01/01 04:54:51;;;;;;;9.88;6.37;;;;;;;8.90;100.00;99964.31;1695772;82;21051;-71
2023/01/01 04:57:18;;;;;;;10.85;6.55;;;;;;;8.89;100.00;99972.98;1704175;83;21510;-71
2023/01/01 04:59:46;;;;;;;9.53;6.75;;;;;;;8.82;100.00;99972.93;1698350;83;21123;-71
2023/01/01 05:02:13;;;;;;;10.65;6.70;;;;;;;8.75;100.00;99974.46;1710518;82;21043;-71
2023/01/01 05:04:39;;;;;;;8.40;6.65;;;;;;;8.73;100.00;99973.08;1702011;82;22257;-71
2023/01/01 05:07:07;;;;;;;8.75;5.95;;;;;;;8.78;100.00;99979.41;1708432;82;21015;-71
2023/01/01 05:09:34;;;;;;;9.00;6.12;;;;;;;8.72;100.00;99975.50;1693215;82;21351;-71
2023/01/01 05:12:01;;;;;;;7.22;5.95;;;;;;;8.68;100.00;99977.91;1708608;82;20961;-71
2023/01/01 05:14:27;;;;;;;;;;;;;;;8.68;100.00;99984.69;1703621;83;21574;-71
2023/01/01 05:16:53;;;;;;;9.13;6.60;;;;;;;8.67;100.00;99987.14;1704524;83;20113;-71
2023/01/01 05:19:20;;;;;;;8.05;6.05;;;;;;;8.56;100.00;99983.19;1699080;82;21098;-71
2023/01/01 05:21:46;;;;;;;8.85;6.60;;;;;;;8.49;100.00;99978.78;1711265;84;21000;-71
2023/01/01 05:24:12;;;;;;;9.08;5.90;;;;;;;8.53;100.00;99987.23;1707268;82;21077;-71
2023/01/01 05:26:43;;;;;;;8.28;5.90;;;;;;;8.57;100.00;99985.66;1703491;83;21361;-71
2023/01/01 05:29:10;;;;;;;8.93;6.28;;;;;;;8.52;100.00;99983.41;1704616;82;21079;-71
2023/01/01 05:31:36;;;;;;;8.68;6.22;;;;;;;8.47;100.00;99982.27;1704777;82;21062;-71
2023/01/01 05:34:04;;;;;;;10.35;6.62;;;;;;;8.52;100.00;99986.12;1687032;82;21135;-71
2023/01/01 05:36:37;;;;;;;7.42;5.83;;;;;;;8.49;100.00;99986.09;1717079;82;21436;-72
2023/01/01 05:39:02;;;;;;;8.35;6.03;;;;;;;8.47;100.00;99984.16;1706661;83;21074;-71
2023/01/01 05:41:30;;;;;;;8.50;6.08;;;;;;;8.50;100.00;99979.05;1684815;84;20997;-71
2023/01/01 05:43:56;;;;;;;;;;;;;;;8.46;100.00;99973.86;1689460;83;21062;-71
2023/01/01 05:46:23;;;;;;;8.63;5.90;;;;;;;8.48;100.00;99975.77;1686769;85;20195;-71
2023/01/01 05:48:51;;;;;;;8.43;6.10;;;;;;;8.48;100.00;99972.23;1681344;83;21530;-71
2023/01/01 05:51:21;;;;;;;7.75;5.75;;;;;;;8.48;100.00;99972.23;1680661;84;20984;-71
2023/01/01 05:53:47;;;;;;;7.60;5.55;;;;;;;8.46;100.00;99971.16;1684113;83;21094;-71
2023/01/01 05:56:14;;;;;;;8.38;5.85;;;;;;;8.53;100.00;99975.56;1666694;85;21051;-71
2023/01/01 05:58:42;;;;;;;7.15;5.62;;;;;;;8.49;100.00;99984.73;1677328;83;21156;-71
2023/01/01 06:01:12;;;;;;;11.60;5.95;;;;;;;8.49;100.00;99995.59;1678314;84;21605;-71
2023/01/01 06:03:39;;;;;;;10.75;5.50;;;;;;;8.50;100.00;100007.53;1684004;83;21143;-70
2023/01/01 06:06:07;;;;;;;8.13;5.78;;;;;;;8.52;100.00;100006.47;1684824;85;21000;-70
2023/01/01 06:08:35;;;;;;;9.80;5.62;;;;;;;8.49;100.00;100001.84;1670117;84;21078;-70
2023/01/01 06:11:03;;;;;;;9.08;5.25;;;;;;;8.52;100.00;100006.47;1671988;85;21296;-69
2023/01/01 06:13:30;;;;;;;9.23;6.03;;;;;;;8.56;100.00;100011.69;1680504;83;21468;-70
2023/01/01 06:15:59;;;;;;;9.10;5.67;;;;;;;8.53;100.00;100005.41;1679183;85;20994;-71
2023/01/01 06:18:29;;;;;;;7.70;5.42;;;;;;;8.51;100.00;100000.22;1676523;84;21079;-71
2023/01/01 06:20:57;;;;;;;8.73;6.42;;;;;;;8.56;100.00;100011.69;1673566;85;21589;-70
2023/01/01 06:23:23;;;;;;;10.03;6.60;;;;;;;8.55;100.00;100001.89;1654616;85;21064;-71
2023/01/01 06:25:52;;;;;;;8.28;5.87;;;;;;;8.50;100.00;100004.03;1686415;83;21496;-71
2023/01/01 06:28:18;;;;;;;10.03;6.00;;;;;;;8.50;100.00;100002.11;1668889;85;21045;-71
2023/01/01 06:30:46;;;;;;;9.23;5.90;;;;;;;8.56;100.00;100000.83;1673633;85;20983;-71
2023/01/01 06:33:13;;;;;;;9.35;6.35;;;;;;;8.53;100.00;100002.69;1671553;84;21056;-71
2023/01/01 06:35:40;;;;;;;8.68;5.80;;;;;;;8.49;100.00;100005.91;1664588;85;21589;-71
2023/01/01 06:38:08;;;;;;;11.20;5.92;;;;;;;8.53;100.00;100006.23;1664569;84;21074;-71
2023/01/01 06:40:35;;;;;;;11.03;6.10;;;;;;;8.54;100.00;100008.41;1657282;85;21589;-71
2023/01/01 06:43:02;;;;;;;9.18;5.83;;;;;;;8.49;100.00;100011.88;1630719;87;22286;-71
2023/01/01 06:45:28;;;;;;;;;;;;;;;8.50;100.00;100008.09;1627858;86;21598;-71
2023/01/01 06:47:56;;;;;;;10.13;5.78;;;;;;;8.55;100.00;100012.74;1622686;87;20149;-71
2023/01/01 06:50:22;;;;;;;8.53;5.62;;;;;;;8.53;100.00;100008.12;1633278;86;21147;-72
2023/01/01 06:52:49;;;;;;;7.15;5.40;;;;;;;8.50;100.00;100008.89;1651904;85;21411;-71
2023/01/01 06:55:15;;;;;;;7.87;5.00;;;;;;;8.56;100.00;100014.39;1630859;87;21062;-71
2023/01/01 06:57:42;;;;;;;9.13;6.20;;;;;;;8.64;100.00;100004.47;1632274;87;21070;-72
2023/01/01 07:00:09;;;;;;;10.53;5.75;;;;;;;8.66;100.00;100007.20;1630317;86;21111;-71
2023/01/01 07:02:40;;;;;;;8.88;6.20;;;;;;;8.71;100.00;100016.78;1627717;87;21634;-71
2023/01/01 07:05:08;;;;;;;9.28;5.78;;;;;;;8.77;100.00;100020.36;1630627;87;21534;-71
2023/01/01 07:07:34;;;;;;;8.83;5.50;;;;;;;8.75;100.00;100027.39;1582370;86;21016;-72
2023/01/01 07:10:03;;;;;;;9.83;5.87;;;;;;;8.76;100.00;100022.25;1637033;86;22349;-70
2023/01/01 07:12:29;;;;;;;9.38;5.70;;;;;;;8.83;100.00;100016.63;1629240;87;21126;-70
2023/01/01 07:14:56;;;;;;;;;;;;;;;8.84;100.00;100015.56;1612951;87;21086;-70
2023/01/01 07:18:19;;;;;;;8.50;5.73;;;;;;;8.88;100.00;100006.66;1768802;79;22981;-71
2023/01/01 07:20:57;;;;;;;8.80;5.70;;;;;;;8.83;100.00;100018.80;1732671;81;21086;-72
2023/01/01 07:23:26;;;;;;;7.28;5.28;;;;;;;8.85;100.00;100026.18;1737396;82;22064;-72
2023/01/01 07:25:53;;;;;;;8.58;5.67;;;;;;;8.92;100.00;100029.52;1740148;82;21541;-72
2023/01/01 07:28:19;;;;;;;9.68;5.45;;;;;;;8.96;100.00;100027.91;1737022;81;21157;-72
2023/01/01 07:30:46;;;;;;;9.18;5.75;;;;;;;8.98;100.00;100024.95;1737611;82;21003;-72
2023/01/01 07:33:15;;;;;;;7.83;5.67;;;;;;;9.03;100.00;100035.89;1732832;80;21683;-71
2023/01/01 07:35:43;;;;;;;8.80;5.85;;;;;;;9.13;100.00;100040.08;1741939;82;20992;-71
2023/01/01 07:38:10;;;;;;;8.28;5.15;;;;;;;9.20;100.00;100039.34;1740913;80;21543;-71
2023/01/01 07:40:36;;;;;;;7.05;5.12;;;;;;;9.20;100.00;100031.19;1744719;80;20987;-71
2023/01/01 07:43:02;;;;;;;;;;;;;;;9.25;100.00;100029.86;1745845;80;21022;-70
2023/01/01 07:45:29;;;;;;;7.75;5.85;;;;;;;9.35;100.00;100023.73;1741617;80;20117;-72
2023/01/01 07:47:57;;;;;;;8.00;5.55;;;;;;;9.32;100.00;100022.33;1683613;83;21158;-70
2023/01/01 07:50:27;;;;;;;7.65;4.58;;;;;;;9.37;100.00;100019.67;1682341;83;20995;-72
2023/01/01 07:52:55;;;;;;;7.37;5.47;;;;;;;9.49;100.00;100025.75;1693113;83;21586;-72
2023/01/01 07:55:21;;;;;;;7.28;5.17;;;;;;;9.55;100.00;100017.66;1689183;84;21042;-70
2023/01/01 07:57:48;;;;;;;6.92;5.08;;;;;;;9.61;100.00;100022.05;1689965;83;20960;-71
2023/01/01 08:00:17;;;;;;;9.60;5.33;;;;;;;9.70;100.00;100017.27;1688891;83;21488;-71
2023/01/01 08:02:44;;;;;;;6.87;5.03;;;;;;;9.79;100.00;100018.95;1685156;83;21023;-71
2023/01/01 08:05:11;;;;;;;7.22;5.35;;;;;;;9.80;100.00;100007.83;1696670;83;21063;-71
2023/01/01 08:07:38;;;;;;;8.13;5.15;;;;;;;9.89;100.00;100002.17;1688501;84;21051;-72
2023/01/01 08:10:05;;;;;;;;;;;;;;;10.00;100.00;99997.62;1693758;83;21109;-72
2023/01/01 08:12:32;;;;;;;7.75;4.83;;;;;;;9.98;100.00;99980.23;1683378;83;20166;-71
2023/01/01 08:14:59;;;;;;;7.03;5.10;;;;;;;9.99;100.00;99987.28;1682654;83;22315;-71
2023/01/01 08:17:26;;;;;;;7.47;5.72;;;;;;;10.10;100.00;99996.33;1684179;84;22240;-72
2023/01/01 08:19:52;;;;;;;;;;;;;;;10.21;100.00;99997.25;1677920;85;21083;-73
2023/01/01 08:22:18;;;;;;;8.25;5.47;;;;;;;10.23;100.00;100001.37;1676349;85;20154;-72
2023/01/01 08:24:45;;;;;;;7.03;5.30;;;;;;;10.23;100.00;99997.28;1671013;83;21738;-72
2023/01/01 08:27:16;;;;;;;;;;;;;;;10.35;100.00;99994.34;1665153;85;21372;-72
2023/01/01 08:29:43;;;;;;;7.75;5.55;;;;;;;10.39;100.00;99988.64;1660683;85;20511;-72
2023/01/01 08:32:11;;;;;;;7.47;5.55;;;;;;;10.40;100.00;99993.02;1662370;85;21049;-73
2023/01/01 08:34:39;;;;;;;8.68;5.97;;;;;;;10.54;100.00;99992.81;1672970;83;21097;-71
2023/01/01 08:37:05;;;;;;;7.08;5.20;;;;;;;10.61;100.00;99991.20;1700129;83;20987;-72
2023/01/01 08:39:32;;;;;;;7.87;5.37;;;;;;;10.63;100.00;99984.97;1696827;83;21664;-72
2023/01/01 08:41:59;;;;;;;9.73;5.55;;;;;;;10.74;100.00;99983.90;1680623;83;21058;-71
2023/01/01 08:44:25;;;;;;;8.13;5.70;;;;;;;10.82;100.00;99984.75;1685755;83;21077;-70
2023/01/01 08:46:52;;;;;;;7.22;5.45;;;;;;;10.84;100.00;99991.56;1689872;82;21640;-72
2023/01/01 08:49:20;;;;;;;7.30;4.95;;;;;;;10.86;100.00;99984.50;1675484;85;21145;-72
2023/01/01 08:51:47;;;;;;;;;;;;;;;10.93;100.00;99988.61;1688568;84;21383;-70
2023/01/01 08:54:13;;;;;;;8.48;5.95;;;;;;;10.94;100.00;99994.88;1698164;84;20149;-72
2023/01/01 08:56:40;;;;;;;;;;;;;;;10.83;100.00;99983.14;1695675;84;21584;-71
2023/01/01 08:59:07;;;;;;;6.65;4.92;;;;;;;10.86;100.00;99980.41;1651126;85;20226;-70
2023/01/01 09:01:33;;;;;;;7.70;5.37;;;;;;;10.90;100.00;99983.70;1674239;84;21045;-71
2023/01/01 09:04:00;;;;;;;;;;;;;;;10.93;100.00;99972.81;1706665;83;21110;-72
2023/01/01 09:06:27;;;;;;;9.58;5.30;;;;;;;10.93;100.00;99976.36;1695874;83;20190;-71
2023/01/01 09:08:53;;;;;;;7.62;5.67;;;;;;;10.96;100.00;99983.98;1673906;84;21095;-70
2023/01/01 09:11:25;;;;;;;7.33;5.47;;;;;;;11.08;100.00;99974.22;1666828;84;21122;-71
2023/01/01 09:13:51;;;;;;;8.85;5.78;;;;;;;11.14;100.00;99972.31;1675158;84;21110;-71
2023/01/01 09:16:18;;;;;;;7.80;5.17;;;;;;;11.19;100.00;99963.62;1673349;84;21067;-70
2023/01/01 09:18:45;;;;;;;8.60;5.40;;;;;;;11.26;100.00;99962.81;1656772;85;21119;-70
2023/01/01 09:21:11;;;;;;;;;;;;;;;11.31;100.00;99966.06;1689647;84;21038;-70
2023/01/01 09:23:38;;;;;;;6.75;5.40;;;;;;;11.28;100.00;99959.26;1704052;83;20121;-71
2023/01/01 09:26:07;;;;;;;8.33;5.70;;;;;;;11.19;100.00;99960.07;1692727;84;21046;-71
2023/01/01 09:28:34;;;;;;;8.23;6.30;;;;;;;11.22;100.00;99954.08;1690143;84;21137;-71
2023/01/01 09:31:01;;;;;;;8.98;6.40;;;;;;;11.24;100.00;99947.26;1711028;82;21085;-71
2023/01/01 09:33:28;;;;;;;7.83;5.60;;;;;;;11.23;100.00;99944.82;1713071;82;21082;-71
2023/01/01 09:35:54;;;;;;;;;;;;;;;11.24;100.00;99942.34;1716408;82;21576;-70
2023/01/01 09:38:22;;;;;;;7.97;5.87;;;;;;;11.29;100.00;99946.45;1721812;82;20146;-70
2023/01/01 09:41:19;;;;;;;8.40;5.92;;;;;;;11.26;100.00;99935.56;1728879;82;21063;-70
2023/01/01 09:44:10;;;;;;;8.43;5.60;;;;;;;11.22;100.00;99934.46;1714745;82;21404;-69
2023/01/01 09:46:37;;;;;;;8.55;5.80;;;;;;;11.37;100.00;99941.84;1701943;82;20987;-70
2023/01/01 09:49:12;;;;;;;8.30;5.83;;;;;;;11.43;100.00;99948.37;1723884;82;21188;-72
2023/01/01 09:51:39;;;;;;;7.30;5.40;;;;;;;11.44;100.00;99945.11;1718923;81;20984;-71
2023/01/01 09:54:17;;;;;;;8.20;5.47;;;;;;;11.51;100.00;99949.74;1661759;84;21098;-71
2023/01/01 09:56:44;;;;;;;7.70;5.17;;;;;;;11.61;100.00;99947.55;1663573;85;21643;-70
2023/01/01 09:59:11;;;;;;;8.65;6.00;;;;;;;11.72;100.00;99925.50;1666408;85;21125;-71
2023/01/01 10:01:48;;;;;;;10.03;5.58;;;;;;;11.75;100.00;99920.85;1719736;81;20985;-71
2023/01/01 10:04:38;;;;;;;6.62;4.90;;;;;;;11.78;100.00;99917.57;1703537;82;21111;-70
2023/01/01 10:07:28;;;;;;;8.23;5.55;;;;;;;11.87;100.00;99935.54;1719460;81;21040;-70
2023/01/01 10:10:37;;;;;;;6.95;5.17;;;;;;;11.96;100.00;99928.45;1728414;81;21704;-70
2023/01/01 10:13:24;;;;;;;7.05;5.25;;;;;;;12.03;100.00;99924.89;1725221;81;21630;-69
2023/01/01 10:16:36;;;;;;;8.50;5.30;;;;;;;12.08;100.00;99921.34;1728610;82;21032;-71
2023/01/01 10:19:29;;;;;;;7.75;5.00;;;;;;;12.19;100.00;99919.64;1725800;81;21054;-71
2023/01/01 10:22:00;;;;;;;7.33;4.78;;;;;;;12.28;100.00;99919.36;1725539;81;21043;-71
2023/01/01 10:24:43;;;;;;;6.03;4.72;;;;;;;12.31;100.00;99920.16;1665891;85;21688;-72
2023/01/01 10:27:32;;;;;;;8.35;5.03;;;;;;;12.33;100.00;99926.69;1726049;82;21884;-72
2023/01/01 10:30:00;;;;;;;7.45;4.90;;;;;;;12.32;100.00;99914.16;1725299;82;21067;-71
2023/01/01 10:32:30;;;;;;;8.18;5.60;;;;;;;12.43;100.00;99925.31;1728513;82;21455;-71
2023/01/01 10:34:56;;;;;;;6.97;5.60;;;;;;;12.43;100.00;99928.05;1728113;82;21059;-71
2023/01/01 10:37:22;;;;;;;;;;;;;;;12.44;100.00;99933.75;1727925;82;21016;-70
2023/01/01 10:39:50;;;;;;;;;;;;;;;12.48;100.00;99936.20;1727673;82;20113;-71
2023/01/01 10:42:16;;;;;;;7.65;5.22;;;;;;;12.39;100.00;99934.61;1719583;81;20139;-70
2023/01/01 10:44:43;;;;;;;7.25;5.08;;;;;;;12.29;100.00;99927.00;1732483;81;21232;-73
2023/01/01 10:47:25;;;;;;;7.35;5.15;;;;;;;12.29;100.00;99929.16;1725042;82;20969;-71
2023/01/01 10:50:03;;;;;;;7.08;4.83;;;;;;;12.38;100.00;99923.95;1719929;82;21150;-70
2023/01/01 10:52:41;;;;;;;6.12;5.20;;;;;;;12.40;100.00;99930.77;1731088;82;21033;-71
2023/01/01 10:55:22;;;;;;;6.67;4.75;;;;;;;12.35;100.00;99929.43;1712343;82;21676;-71
2023/01/01 10:57:49;;;;;;;7.30;4.80;;;;;;;12.36;100.00;99934.34;1696890;82;21672;-70
2023/01/01 11:00:25;;;;;;;7.35;4.55;;;;;;;12.42;100.00;99935.41;1695393;82;21015;-71
2023/01/01 11:03:19;;;;;;;6.08;5.22;;;;;;;12.45;100.00;99917.65;1719283;82;20983;-69
2023/01/01 11:06:13;;;;;;;6.58;4.87;;;;;;;12.44;100.00;99917.37;1708609;82;21051;-71
2023/01/01 11:08:46;;;;;;;7.60;5.05;;;;;;;12.42;100.00;99925.03;1732860;82;21518;-70
2023/01/01 11:11:28;;;;;;;7.33;4.78;;;;;;;12.48;100.00;99931.55;1729112;82;21058;-70
2023/01/01 11:13:59;;;;;;;7.10;4.90;;;;;;;12.51;100.00;99934.81;1726596;82;21062;-70
2023/01/01 11:16:27;;;;;;;6.33;4.70;;;;;;;12.48;100.00;99937.56;1722999;82;21039;-70
2023/01/01 11:19:03;;;;;;;7.53;4.75;;;;;;;12.48;100.00;99928.83;1721559;81;21063;-71
2023/01/01 11:21:31;;;;;;;5.72;4.42;;;;;;;12.54;100.00;99932.34;1722401;80;21067;-71
2023/01/01 11:24:16;;;;;;;5.53;4.60;;;;;;;12.62;100.00;99930.94;1717666;82;21368;-71
2023/01/01 11:26:43;;;;;;;6.60;4.22;;;;;;;12.63;100.00;99921.12;1728061;81;21972;-71
2023/01/01 11:29:26;;;;;;;6.22;4.15;;;;;;;12.67;100.00;99928.20;1723375;81;21091;-71
2023/01/01 11:31:52;;;;;;;7.45;4.97;;;;;;;12.69;100.00;99924.63;1720873;81;21169;-72
2023/01/01 11:34:31;;;;;;;;;;;;;;;12.74;100.00;99923.25;1713222;81;21035;-71
2023/01/01 11:37:34;;;;;;;6.47;4.42;;;;;;;12.77;100.00;99929.52;1730964;81;20117;-72
2023/01/01 11:40:03;;;;;;;6.55;4.83;;;;;;;12.68;100.00;99928.48;1723399;81;20964;-72
2023/01/01 11:42:32;;;;;;;7.97;4.37;;;;;;;12.68;100.00;99912.09;1726154;81;20972;-72
2023/01/01 11:45:27;;;;;;;5.47;4.08;;;;;;;12.77;100.00;99914.48;1724009;81;21055;-71
2023/01/01 11:48:01;;;;;;;7.35;4.10;;;;;;;12.84;100.00;99915.81;1727142;81;21877;-70
2023/01/01 11:50:34;;;;;;;7.92;4.75;;;;;;;12.85;100.00;99917.45;1718976;81;21024;-71